createdAt,value
2023-04-22T00:01:06.920Z,100943.28
2023-04-22T00:03:34.292Z,100944.41
2023-04-22T00:06:00.742Z,100940.81
2023-04-22T00:08:27.445Z,100940.91
2023-04-22T00:10:53.546Z,100936.38
2023-04-22T00:13:19.945Z,100928.81
2023-04-22T00:15:46.067Z,100925.25
2023-04-22T00:18:13.156Z,100920.69
2023-04-22T00:20:42.151Z,100928.34
2023-04-22T00:23:08.947Z,100925.75
2023-04-22T00:25:35.228Z,100929.97
2023-04-22T00:28:01.593Z,100927.56
2023-04-22T00:30:27.647Z,100939.03
2023-04-22T00:32:54.295Z,100926.19
2023-04-22T00:35:20.355Z,100927.69
2023-04-22T00:37:46.765Z,100933.09
2023-04-22T00:40:12.845Z,100931.78
2023-04-22T00:42:42.217Z,100927.09
2023-04-22T00:45:14.634Z,100929.22
2023-04-22T00:47:41.532Z,100924.78
2023-04-22T00:50:07.968Z,100928.22
2023-04-22T00:52:34.351Z,100926.78
2023-04-22T00:55:00.469Z,100927.63
2023-04-22T00:57:30.575Z,100925.34
2023-04-22T00:59:56.854Z,100917.47
2023-04-22T01:02:24.086Z,100919.16
2023-04-22T01:04:53.426Z,100922.50
2023-04-22T01:07:20.960Z,100913.88
2023-04-22T01:09:47.107Z,100926.66
2023-04-22T01:12:13.603Z,100922.66
2023-04-22T01:14:40.475Z,100923.50
2023-04-22T01:17:07.231Z,100915.47
2023-04-22T01:19:33.311Z,100925.91
2023-04-22T01:22:01.373Z,100923.56
2023-04-22T01:24:27.636Z,100917.66
2023-04-22T01:26:54.028Z,100923.72
2023-04-22T01:29:20.220Z,100935.28
2023-04-22T01:31:47.189Z,100925.34
2023-04-22T01:34:13.259Z,100931.13
2023-04-22T01:36:39.720Z,100922.19
2023-04-22T01:39:06.917Z,100927.00
2023-04-22T01:41:33.713Z,100921.66
2023-04-22T01:44:02.328Z,100918.69
2023-04-22T01:46:28.801Z,100919.34
2023-04-22T01:48:54.992Z,100915.59
2023-04-22T01:51:22.887Z,100923.19
2023-04-22T01:53:49.569Z,100917.72
2023-04-22T01:56:16.531Z,100905.41
2023-04-22T01:58:42.691Z,100912.06
2023-04-22T02:01:10.698Z,100911.59
2023-04-22T02:03:37.669Z,100916.47
2023-04-22T02:06:04.698Z,100910.13
2023-04-22T02:08:30.806Z,100914.19
2023-04-22T02:10:58.696Z,100914.81
2023-04-22T02:13:24.971Z,100914.75
2023-04-22T02:15:51.436Z,100909.13
2023-04-22T02:18:18.790Z,100913.81
2023-04-22T02:20:45.153Z,100906.47
2023-04-22T02:23:11.641Z,100908.44
2023-04-22T02:25:38.813Z,100908.72
2023-04-22T02:28:04.915Z,100903.44
2023-04-22T02:30:31.352Z,100910.56
2023-04-22T02:32:57.449Z,100899.97
2023-04-22T02:35:24.740Z,100907.22
2023-04-22T02:37:50.858Z,100896.56
2023-04-22T02:40:17.976Z,100895.63
2023-04-22T02:42:44.724Z,100893.63
2023-04-22T02:45:11.079Z,100903.41
2023-04-22T02:47:37.382Z,100889.03
2023-04-22T02:50:06.023Z,100889.03
2023-04-22T02:52:35.180Z,100891.13
2023-04-22T02:55:01.511Z,100883.75
2023-04-22T02:57:27.729Z,100887.78
2023-04-22T02:59:54.127Z,100890.44
2023-04-22T03:02:21.495Z,100881.53
2023-04-22T03:05:06.757Z,100888.53
2023-04-22T03:07:33.577Z,100884.59
2023-04-22T03:10:00.264Z,100881.53
2023-04-22T03:12:26.398Z,100878.38
2023-04-22T03:14:52.838Z,100887.16
2023-04-22T03:17:20.905Z,100890.28
2023-04-22T03:19:47.332Z,100886.47
2023-04-22T03:22:14.370Z,100884.41
2023-04-22T03:24:40.821Z,100884.41
2023-04-22T03:27:09.968Z,100887.63
2023-04-22T03:29:36.533Z,100881.59
2023-04-22T03:32:02.675Z,100878.75
2023-04-22T03:34:29.325Z,100875.81
2023-04-22T03:36:55.759Z,100876.66
2023-04-22T03:39:22.519Z,100876.47
2023-04-22T03:41:48.870Z,100868.63
2023-04-22T03:44:15.962Z,100873.97
2023-04-22T03:46:43.302Z,100876.53
2023-04-22T03:49:22.909Z,100870.03
2023-04-22T03:51:49.187Z,100871.44
2023-04-22T03:54:19.894Z,100872.56
2023-04-22T03:56:50.350Z,100863.13
2023-04-22T03:59:17.593Z,100875.59
2023-04-22T04:01:47.498Z,100873.88
2023-04-22T04:04:18.708Z,100876.34
2023-04-22T04:06:50.777Z,100877.66
2023-04-22T04:09:17.253Z,100878.94
2023-04-22T04:11:44.670Z,100875.59
2023-04-22T04:14:12.137Z,100870.91
2023-04-22T04:16:45.169Z,100869.66
2023-04-22T04:19:17.566Z,100876.63
2023-04-22T04:21:44.651Z,100875.03
2023-04-22T04:24:11.044Z,100870.25
2023-04-22T04:26:42.987Z,100882.66
2023-04-22T04:29:14.234Z,100869.72
2023-04-22T04:31:45.675Z,100876.50
2023-04-22T04:34:12.480Z,100883.34
2023-04-22T04:36:39.130Z,100857.34
2023-04-22T04:39:16.528Z,100868.66
2023-04-22T04:41:42.828Z,100868.81
2023-04-22T04:44:09.813Z,100883.13
2023-04-22T04:46:37.906Z,100872.25
2023-04-22T04:49:08.718Z,100877.72
2023-04-22T04:51:42.575Z,100871.66
2023-04-22T04:54:09.323Z,100871.09
2023-04-22T04:56:39.147Z,100871.81
2023-04-22T04:59:07.084Z,100872.22
2023-04-22T05:01:34.516Z,100882.53
2023-04-22T05:04:06.515Z,100877.97
2023-04-22T05:06:33.248Z,100879.47
2023-04-22T05:09:03.880Z,100877.97
2023-04-22T05:11:30.280Z,100871.59
2023-04-22T05:13:59.620Z,100879.16
2023-04-22T05:16:33.714Z,100877.75
2023-04-22T05:19:00.847Z,100877.31
2023-04-22T05:21:26.969Z,100877.63
2023-04-22T05:23:54.104Z,100876.78
2023-04-22T05:26:20.532Z,100881.34
2023-04-22T05:28:49.240Z,100873.53
2023-04-22T05:31:17.246Z,100882.22
2023-04-22T05:33:43.870Z,100882.38
2023-04-22T05:36:10.060Z,100883.81
2023-04-22T05:38:36.447Z,100879.44
2023-04-22T05:41:02.982Z,100884.38
2023-04-22T05:43:29.931Z,100881.81
2023-04-22T05:46:06.529Z,100888.47
2023-04-22T05:48:36.864Z,100886.22
2023-04-22T05:51:07.118Z,100876.81
2023-04-22T05:53:33.748Z,100877.91
2023-04-22T05:56:01.454Z,100881.59
2023-04-22T05:58:28.285Z,100882.00
2023-04-22T06:00:59.361Z,100885.81
2023-04-22T06:03:44.424Z,100888.84
2023-04-22T06:06:11.823Z,100884.03
2023-04-22T06:08:39.035Z,100883.72
2023-04-22T06:11:05.268Z,100877.50
2023-04-22T06:13:37.602Z,100875.66
2023-04-22T06:16:05.390Z,100872.16
2023-04-22T06:18:32.698Z,100892.50
2023-04-22T06:20:59.614Z,100877.38
2023-04-22T06:23:26.179Z,100873.91
2023-04-22T06:25:52.539Z,100878.50
2023-04-22T06:28:18.997Z,100876.19
2023-04-22T06:30:47.712Z,100877.66
2023-04-22T06:33:14.891Z,100878.91
2023-04-22T06:35:41.211Z,100877.59
2023-04-22T06:38:07.671Z,100873.72
2023-04-22T06:40:42.753Z,100873.16
2023-04-22T06:43:17.681Z,100879.66
2023-04-22T06:46:04.038Z,100880.44
2023-04-22T06:48:59.444Z,100878.91
2023-04-22T06:51:34.907Z,100880.94
2023-04-22T06:54:01.657Z,100876.38
2023-04-22T06:56:27.909Z,100879.44
2023-04-22T06:58:54.694Z,100876.44
2023-04-22T07:01:21.134Z,100868.63
2023-04-22T07:03:48.284Z,100878.88
2023-04-22T07:06:15.218Z,100871.03
2023-04-22T07:08:41.961Z,100876.63
2023-04-22T07:11:10.349Z,100874.66
2023-04-22T07:13:41.605Z,100873.31
2023-04-22T07:16:07.921Z,100867.41
2023-04-22T07:18:35.724Z,100870.09
2023-04-22T07:21:02.117Z,100869.25
2023-04-22T07:23:28.494Z,100870.66
2023-04-22T07:25:54.684Z,100866.81
2023-04-22T07:28:21.232Z,100869.63
2023-04-22T07:30:47.923Z,100868.09
2023-04-22T07:33:14.337Z,100865.75
2023-04-22T07:35:40.715Z,100874.34
2023-04-22T07:38:08.829Z,100872.44
2023-04-22T07:40:36.069Z,100876.22
2023-04-22T07:43:03.024Z,100869.69
2023-04-22T07:45:29.723Z,100870.16
2023-04-22T07:47:56.395Z,100864.34
2023-04-22T07:50:22.813Z,100865.75
2023-04-22T07:52:49.662Z,100861.94
2023-04-22T07:55:15.941Z,100864.91
2023-04-22T07:57:42.526Z,100863.19
2023-04-22T08:00:10.130Z,100863.81
2023-04-22T08:02:40.561Z,100856.66
2023-04-22T08:05:07.329Z,100856.63
2023-04-22T08:07:33.958Z,100861.44
2023-04-22T08:10:00.574Z,100859.59
2023-04-22T08:12:27.522Z,100858.88
2023-04-22T08:14:53.772Z,100854.94
2023-04-22T08:17:21.323Z,100853.91
2023-04-22T08:19:48.263Z,100848.91
2023-04-22T08:22:15.289Z,100851.03
2023-04-22T08:24:41.471Z,100852.56
2023-04-22T08:27:07.812Z,100846.69
2023-04-22T08:29:34.077Z,100851.97
2023-04-22T08:32:00.676Z,100844.44
2023-04-22T08:34:28.172Z,100844.31
2023-04-22T08:36:54.761Z,100849.56
2023-04-22T08:39:21.123Z,100846.63
2023-04-22T08:41:49.893Z,100845.66
2023-04-22T08:44:16.531Z,100840.63
2023-04-22T08:46:48.218Z,100835.78
2023-04-22T08:49:15.084Z,100833.53
2023-04-22T08:51:42.966Z,100831.22
2023-04-22T08:54:10.283Z,100842.78
2023-04-22T08:56:40.996Z,100836.78
2023-04-22T08:59:09.770Z,100839.91
2023-04-22T09:01:37.807Z,100832.09
2023-04-22T09:04:05.113Z,100839.66
2023-04-22T09:06:32.745Z,100843.38
2023-04-22T09:09:00.580Z,100832.59
2023-04-22T09:11:28.326Z,100837.34
2023-04-22T09:13:54.880Z,100834.97
2023-04-22T09:16:21.461Z,100831.69
2023-04-22T09:18:49.205Z,100832.06
2023-04-22T09:21:16.146Z,100825.06
2023-04-22T09:23:49.358Z,100830.44
2023-04-22T09:26:20.171Z,100825.59
2023-04-22T09:28:55.912Z,100826.47
2023-04-22T09:31:22.617Z,100823.94
2023-04-22T09:33:55.247Z,100818.78
2023-04-22T09:36:23.564Z,100822.44
2023-04-22T09:38:54.738Z,100817.63
2023-04-22T09:41:38.264Z,100814.00
2023-04-22T09:44:09.504Z,100804.72
2023-04-22T09:46:36.391Z,100806.63
2023-04-22T09:49:02.809Z,100806.81
2023-04-22T09:51:30.001Z,100796.59
2023-04-22T09:53:58.723Z,100796.06
2023-04-22T09:56:48.712Z,100795.34
2023-04-22T09:59:27.406Z,100801.72
2023-04-22T10:02:03.850Z,100796.59
2023-04-22T10:04:30.605Z,100793.78
2023-04-22T10:06:57.318Z,100795.59
2023-04-22T10:09:24.912Z,100786.06
2023-04-22T10:11:53.818Z,100801.72
2023-04-22T10:14:23.927Z,100796.31
2023-04-22T10:16:55.981Z,100794.41
2023-04-22T10:19:24.695Z,100783.16
2023-04-22T10:21:56.940Z,100787.81
2023-04-22T10:24:26.811Z,100788.19
2023-04-22T10:26:58.007Z,100780.16
2023-04-22T10:29:26.857Z,100787.94
2023-04-22T10:31:57.475Z,100775.16
2023-04-22T10:34:23.805Z,100782.41
2023-04-22T10:37:08.727Z,100779.59
2023-04-22T10:39:35.124Z,100769.03
2023-04-22T10:42:01.579Z,100769.50
2023-04-22T10:44:30.042Z,100770.25
2023-04-22T10:46:58.365Z,100765.38
2023-04-22T10:49:26.358Z,100757.06
2023-04-22T10:51:59.678Z,100761.22
2023-04-22T10:54:27.376Z,100763.06
2023-04-22T10:57:05.578Z,100755.75
2023-04-22T10:59:34.946Z,100759.97
2023-04-22T11:02:02.432Z,100748.44
2023-04-22T11:04:29.022Z,100750.13
2023-04-22T11:07:25.532Z,100756.84
2023-04-22T11:10:04.609Z,100743.88
2023-04-22T11:12:42.183Z,100735.63
2023-04-22T11:15:16.184Z,100737.59
2023-04-22T11:17:45.826Z,100735.84
2023-04-22T11:20:18.149Z,100721.03
2023-04-22T11:22:51.226Z,100731.81
2023-04-22T11:25:17.541Z,100722.38
2023-04-22T11:27:44.769Z,100719.94
2023-04-22T11:30:21.726Z,100712.53
2023-04-22T11:32:50.634Z,100705.44
2023-04-22T11:35:43.320Z,100710.31
2023-04-22T11:38:09.916Z,100707.72
2023-04-22T11:40:39.615Z,100704.72
2023-04-22T11:43:08.945Z,100695.22
2023-04-22T11:45:36.298Z,100692.97
2023-04-22T11:48:05.831Z,100694.72
2023-04-22T11:50:34.571Z,100692.03
2023-04-22T11:53:23.557Z,100693.69
2023-04-22T11:55:51.105Z,100685.38
2023-04-22T11:58:23.030Z,100689.03
2023-04-22T12:00:51.843Z,100682.59
2023-04-22T12:03:28.993Z,100677.88
2023-04-22T12:05:59.638Z,100672.56
2023-04-22T12:08:32.319Z,100667.50
2023-04-22T12:11:01.522Z,100676.28
2023-04-22T12:13:30.904Z,100679.34
2023-04-22T12:16:00.491Z,100677.56
2023-04-22T12:18:47.512Z,100665.75
2023-04-22T12:21:16.180Z,100668.13
2023-04-22T12:23:47.782Z,100660.56
2023-04-22T12:26:16.495Z,100660.47
2023-04-22T12:28:44.257Z,100652.56
2023-04-22T12:31:11.616Z,100650.28
2023-04-22T12:33:38.287Z,100644.53
2023-04-22T12:36:05.566Z,100647.00
2023-04-22T12:38:32.337Z,100648.56
2023-04-22T12:40:58.685Z,100647.13
2023-04-22T12:43:25.242Z,100643.69
2023-04-22T12:45:51.483Z,100643.34
2023-04-22T12:48:17.893Z,100636.94
2023-04-22T12:50:44.209Z,100633.78
2023-04-22T12:53:10.572Z,100633.19
2023-04-22T12:55:36.811Z,100633.09
2023-04-22T12:58:03.412Z,100633.38
2023-04-22T13:00:30.257Z,100622.03
2023-04-22T13:02:56.780Z,100618.81
2023-04-22T13:05:22.985Z,100612.63
2023-04-22T13:07:59.632Z,100617.53
2023-04-22T13:10:32.768Z,100617.47
2023-04-22T13:13:10.212Z,100604.22
2023-04-22T13:15:42.781Z,100611.88
2023-04-22T13:18:09.205Z,100602.31
2023-04-22T13:20:35.368Z,100601.59
2023-04-22T13:23:01.828Z,100597.59
2023-04-22T13:25:27.901Z,100594.44
2023-04-22T13:27:54.243Z,100596.28
2023-04-22T13:30:20.468Z,100603.38
2023-04-22T13:32:46.962Z,100593.66
2023-04-22T13:35:13.202Z,100598.81
2023-04-22T13:37:39.537Z,100589.91
2023-04-22T13:40:06.371Z,100595.31
2023-04-22T13:42:33.521Z,100592.31
2023-04-22T13:44:59.702Z,100590.81
2023-04-22T13:47:26.210Z,100586.13
2023-04-22T13:49:52.446Z,100576.16
2023-04-22T13:52:18.856Z,100580.69
2023-04-22T13:54:45.352Z,100570.13
2023-04-22T13:57:11.739Z,100568.19
2023-04-22T13:59:37.868Z,100573.63
2023-04-22T14:02:04.261Z,100568.28
2023-04-22T14:04:30.667Z,100566.38
2023-04-22T14:06:57.070Z,100571.34
2023-04-22T14:09:23.164Z,100568.19
2023-04-22T14:11:49.535Z,100564.13
2023-04-22T14:14:15.676Z,100561.31
2023-04-22T14:16:42.143Z,100553.41
2023-04-22T14:19:09.401Z,100550.03
2023-04-22T14:21:35.804Z,100551.72
2023-04-22T14:24:01.959Z,100545.28
2023-04-22T14:26:28.691Z,100547.59
2023-04-22T14:28:54.960Z,100541.22
2023-04-22T14:31:23.488Z,100531.47
2023-04-22T14:33:50.278Z,100537.53
2023-04-22T14:36:18.052Z,100538.84
2023-04-22T14:38:44.193Z,100540.19
2023-04-22T14:41:10.797Z,100531.56
2023-04-22T14:43:36.912Z,100530.53
2023-04-22T14:46:03.451Z,100541.50
2023-04-22T14:48:31.590Z,100541.03
2023-04-22T14:50:59.195Z,100537.25
2023-04-22T14:53:25.547Z,100533.50
2023-04-22T14:55:52.251Z,100531.09
2023-04-22T14:58:18.297Z,100531.19
2023-04-22T15:00:46.526Z,100527.81
2023-04-22T15:03:12.770Z,100527.53
2023-04-22T15:05:39.210Z,100520.53
2023-04-22T15:08:05.787Z,100524.75
2023-04-22T15:10:32.297Z,100528.25
2023-04-22T15:12:59.565Z,100520.94
2023-04-22T15:15:26.249Z,100518.66
2023-04-22T15:17:52.719Z,100509.94
2023-04-22T15:20:19.276Z,100512.22
2023-04-22T15:22:45.727Z,100513.06
2023-04-22T15:25:12.231Z,100505.47
2023-04-22T15:27:38.685Z,100509.75
2023-04-22T15:30:06.645Z,100505.91
2023-04-22T15:32:33.157Z,100507.09
2023-04-22T15:35:00.179Z,100505.88
2023-04-22T15:37:26.605Z,100505.47
2023-04-22T15:39:53.297Z,100502.63
2023-04-22T15:42:19.485Z,100500.09
2023-04-22T15:44:45.920Z,100503.78
2023-04-22T15:47:12.840Z,100503.44
2023-04-22T15:49:39.631Z,100495.88
2023-04-22T15:52:06.268Z,100500.53
2023-04-22T15:54:32.640Z,100492.94
2023-04-22T15:56:58.795Z,100488.56
2023-04-22T15:59:25.229Z,100492.38
2023-04-22T16:01:51.435Z,100483.50
2023-04-22T16:04:18.366Z,100483.94
2023-04-22T16:06:45.488Z,100477.00
2023-04-22T16:09:12.472Z,100482.19
2023-04-22T16:11:43.178Z,100481.78
2023-04-22T16:14:12.595Z,100476.50
2023-04-22T16:16:40.437Z,100482.00
2023-04-22T16:19:07.429Z,100483.97
2023-04-22T16:21:33.778Z,100484.59
2023-04-22T16:24:01.168Z,100477.94
2023-04-22T16:26:27.366Z,100477.66
2023-04-22T16:28:54.507Z,100469.28
2023-04-22T16:31:22.147Z,100464.66
2023-04-22T16:33:50.188Z,100465.72
2023-04-22T16:36:16.406Z,100462.38
2023-04-22T16:38:42.767Z,100458.78
2023-04-22T16:41:10.760Z,100457.78
2023-04-22T16:43:40.276Z,100458.00
2023-04-22T16:46:08.356Z,100463.72
2023-04-22T16:48:35.172Z,100453.59
2023-04-22T16:51:01.276Z,100457.03
2023-04-22T16:53:27.645Z,100460.00
2023-04-22T16:55:53.831Z,100450.72
2023-04-22T16:58:23.401Z,100448.00
2023-04-22T17:00:49.729Z,100448.69
2023-04-22T17:03:16.462Z,100446.38
2023-04-22T17:05:42.774Z,100444.50
2023-04-22T17:08:09.361Z,100436.50
2023-04-22T17:10:40.582Z,100437.38
2023-04-22T17:13:07.120Z,100438.03
2023-04-22T17:15:33.632Z,100427.75
2023-04-22T17:18:01.712Z,100425.66
2023-04-22T17:20:27.887Z,100430.72
2023-04-22T17:22:54.510Z,100430.97
2023-04-22T17:25:20.617Z,100416.38
2023-04-22T17:27:47.013Z,100418.50
2023-04-22T17:30:13.430Z,100419.78
2023-04-22T17:32:40.128Z,100417.28
2023-04-22T17:35:06.934Z,100418.13
2023-04-22T17:37:33.323Z,100416.66
2023-04-22T17:39:59.705Z,100419.84
2023-04-22T17:42:38.826Z,100422.38
2023-04-22T17:45:10.110Z,100431.06
2023-04-22T17:47:36.595Z,100425.94
2023-04-22T17:50:03.205Z,100425.94
2023-04-22T17:52:29.928Z,100425.72
2023-04-22T17:54:57.791Z,100433.66
2023-04-22T17:57:27.577Z,100426.00
2023-04-22T17:59:53.981Z,100434.81
2023-04-22T18:02:21.460Z,100431.34
2023-04-22T18:04:48.296Z,100429.53
2023-04-22T18:07:15.042Z,100431.06
2023-04-22T18:09:41.833Z,100435.00
2023-04-22T18:12:09.896Z,100433.84
2023-04-22T18:14:36.156Z,100425.78
2023-04-22T18:17:03.235Z,100432.44
2023-04-22T18:19:29.556Z,100434.91
2023-04-22T18:22:00.029Z,100431.03
2023-04-22T18:24:27.559Z,100434.28
2023-04-22T18:26:54.305Z,100434.22
2023-04-22T18:29:20.615Z,100437.53
2023-04-22T18:31:47.299Z,100438.03
2023-04-22T18:34:15.236Z,100432.63
2023-04-22T18:36:42.013Z,100432.41
2023-04-22T18:39:10.963Z,100434.31
2023-04-22T18:41:39.369Z,100437.78
2023-04-22T18:44:06.042Z,100441.94
2023-04-22T18:46:33.008Z,100440.66
2023-04-22T18:48:59.574Z,100441.28
2023-04-22T18:51:27.015Z,100442.06
2023-04-22T18:53:53.560Z,100449.09
2023-04-22T18:56:20.335Z,100444.78
2023-04-22T18:58:46.960Z,100442.13
2023-04-22T19:01:13.781Z,100434.22
2023-04-22T19:03:40.512Z,100435.63
2023-04-22T19:06:07.564Z,100431.94
2023-04-22T19:08:35.450Z,100440.69
2023-04-22T19:11:02.138Z,100431.53
2023-04-22T19:13:30.120Z,100436.72
2023-04-22T19:15:57.695Z,100434.91
2023-04-22T19:18:24.102Z,100440.78
2023-04-22T19:20:50.908Z,100435.91
2023-04-22T19:23:17.602Z,100445.84
2023-04-22T19:25:45.118Z,100439.56
2023-04-22T19:28:12.307Z,100423.22
2023-04-22T19:30:39.472Z,100437.91
2023-04-22T19:33:06.406Z,100432.38
2023-04-22T19:35:35.813Z,100434.25
2023-04-22T19:38:15.630Z,100433.47
2023-04-22T19:40:42.308Z,100436.72
2023-04-22T19:43:08.703Z,100425.03
2023-04-22T19:45:35.539Z,100439.38
2023-04-22T19:48:02.096Z,100434.94
2023-04-22T19:50:29.175Z,100429.19
2023-04-22T19:53:04.154Z,100425.94
2023-04-22T19:55:33.056Z,100423.09
2023-04-22T19:58:00.040Z,100424.47
2023-04-22T20:00:27.073Z,100435.09
2023-04-22T20:02:56.212Z,100424.91
2023-04-22T20:05:23.632Z,100431.41
2023-04-22T20:07:51.193Z,100422.34
2023-04-22T20:10:18.561Z,100421.25
2023-04-22T20:12:45.535Z,100423.88
2023-04-22T20:15:12.809Z,100425.94
2023-04-22T20:17:39.463Z,100407.44
2023-04-22T20:20:56.657Z,100420.66
2023-04-22T20:23:27.940Z,100414.22
2023-04-22T20:25:56.009Z,100413.38
2023-04-22T20:28:41.892Z,100414.44
2023-04-22T20:31:08.871Z,100416.66
2023-04-22T20:33:35.467Z,100412.59
2023-04-22T20:36:06.186Z,100413.28
2023-04-22T20:38:37.028Z,100412.59
2023-04-22T20:41:08.762Z,100410.22
2023-04-22T20:43:35.986Z,100410.41
2023-04-22T20:46:03.375Z,100417.03
2023-04-22T20:48:30.778Z,100412.44
2023-04-22T20:50:57.474Z,100413.28
2023-04-22T20:53:24.930Z,100421.09
2023-04-22T20:55:51.601Z,100426.03
2023-04-22T20:58:18.081Z,100418.72
2023-04-22T21:00:45.245Z,100412.44
2023-04-22T21:03:14.197Z,100416.34
2023-04-22T21:05:42.548Z,100410.56
2023-04-22T21:08:21.083Z,100407.34
2023-04-22T21:10:49.390Z,100405.47
2023-04-22T21:13:16.375Z,100410.44
2023-04-22T21:15:57.038Z,100409.59
2023-04-22T21:18:26.093Z,100409.25
2023-04-22T21:20:55.729Z,100413.13
2023-04-22T21:23:26.378Z,100413.16
2023-04-22T21:25:55.221Z,100408.06
2023-04-22T21:28:22.205Z,100410.59
2023-04-22T21:30:49.271Z,100416.19
2023-04-22T21:33:16.169Z,100408.56
2023-04-22T21:35:43.255Z,100399.22
2023-04-22T21:38:10.001Z,100409.56
2023-04-22T21:40:36.946Z,100407.88
2023-04-22T21:43:04.136Z,100410.91
2023-04-22T21:45:31.016Z,100406.50
2023-04-22T21:48:00.488Z,100398.53
2023-04-22T21:50:29.373Z,100405.50
2023-04-22T21:52:55.716Z,100383.25
2023-04-22T21:55:22.590Z,100404.78
2023-04-22T21:57:48.805Z,100399.00
2023-04-22T22:00:18.396Z,100407.81
2023-04-22T22:02:48.136Z,100396.81
2023-04-22T22:05:15.252Z,100396.28
2023-04-22T22:07:42.261Z,100405.09
2023-04-22T22:10:12.020Z,100408.75
2023-04-22T22:12:38.307Z,100410.13
2023-04-22T22:15:05.284Z,100409.91
2023-04-22T22:17:31.542Z,100405.19
2023-04-22T22:19:58.064Z,100401.59
2023-04-22T22:22:24.111Z,100399.34
2023-04-22T22:24:51.920Z,100388.50
2023-04-22T22:27:18.541Z,100402.25
2023-04-22T22:29:45.787Z,100389.53
2023-04-22T22:32:12.038Z,100393.78
2023-04-22T22:34:38.748Z,100400.91
2023-04-22T22:37:05.065Z,100393.94
2023-04-22T22:39:31.422Z,100388.69
2023-04-22T22:41:58.925Z,100386.13
2023-04-22T22:44:25.392Z,100380.47
2023-04-22T22:46:51.557Z,100394.31
2023-04-22T22:49:18.062Z,100378.69
2023-04-22T22:51:44.247Z,100387.00
2023-04-22T22:54:10.627Z,100385.94
2023-04-22T22:56:36.832Z,100374.28
2023-04-22T22:59:03.546Z,100383.09
2023-04-22T23:01:29.747Z,100384.66
2023-04-22T23:03:56.363Z,100385.34
2023-04-22T23:06:22.642Z,100383.47
2023-04-22T23:08:48.989Z,100382.63
2023-04-22T23:11:15.181Z,100375.19
2023-04-22T23:13:41.488Z,100375.03
2023-04-22T23:16:07.800Z,100376.50
2023-04-22T23:18:35.851Z,100377.84
2023-04-22T23:21:03.888Z,100369.88
2023-04-22T23:23:31.839Z,100374.81
2023-04-22T23:25:59.996Z,100372.94
2023-04-22T23:28:27.057Z,100364.13
2023-04-22T23:30:55.218Z,100365.78
2023-04-22T23:33:23.924Z,100370.16
2023-04-22T23:35:52.534Z,100364.41
2023-04-22T23:38:19.001Z,100362.88
2023-04-22T23:40:45.089Z,100361.22
2023-04-22T23:43:11.448Z,100359.28
2023-04-22T23:45:37.596Z,100359.97
2023-04-22T23:48:04.153Z,100354.13
2023-04-22T23:50:30.335Z,100349.50
2023-04-22T23:52:57.162Z,100350.00
2023-04-22T23:55:23.428Z,100348.28
2023-04-22T23:57:50.084Z,100340.84
